createdAt,value
2022-09-15T00:00:29.551Z,17.30
2022-09-15T00:02:56.365Z,17.30
2022-09-15T00:05:23.055Z,17.30
2022-09-15T00:07:49.738Z,17.30
2022-09-15T00:10:17.396Z,17.30
2022-09-15T00:12:44.136Z,17.40
2022-09-15T00:15:14.695Z,17.40
2022-09-15T00:17:42.696Z,17.40
2022-09-15T00:20:10.687Z,17.40
2022-09-15T00:22:37.658Z,17.40
2022-09-15T00:25:04.951Z,17.40
2022-09-15T00:27:32.995Z,17.40
2022-09-15T00:30:00.185Z,17.40
2022-09-15T00:32:27.660Z,17.40
2022-09-15T00:34:54.465Z,17.30
2022-09-15T00:37:21.268Z,17.30
2022-09-15T00:39:48.383Z,17.30
2022-09-15T00:42:20.382Z,17.30
2022-09-15T00:44:59.494Z,17.30
2022-09-15T00:47:33.438Z,17.30
2022-09-15T00:50:10.982Z,17.30
2022-09-15T00:52:51.205Z,17.30
2022-09-15T00:55:40.102Z,17.20
2022-09-15T00:58:17.742Z,17.20
2022-09-15T01:00:56.241Z,17.20
2022-09-15T01:03:27.185Z,17.20
2022-09-15T01:06:04.042Z,17.20
2022-09-15T01:08:34.064Z,17.20
2022-09-15T01:11:01.581Z,17.30
2022-09-15T01:13:29.789Z,17.30
2022-09-15T01:16:21.013Z,17.30
2022-09-15T01:19:06.307Z,17.30
2022-09-15T01:21:53.696Z,17.30
2022-09-15T01:24:44.901Z,17.30
2022-09-15T01:27:49.336Z,17.30
2022-09-15T01:30:19.366Z,17.30
2022-09-15T01:33:04.694Z,17.30
2022-09-15T01:35:56.936Z,17.30
2022-09-15T01:39:00.856Z,17.30
2022-09-15T01:41:34.463Z,17.30
2022-09-15T01:44:10.939Z,17.30
2022-09-15T01:46:41.325Z,17.30
2022-09-15T01:49:11.084Z,17.30
2022-09-15T01:51:39.381Z,17.20
2022-09-15T01:54:07.509Z,17.30
2022-09-15T01:56:36.488Z,17.20
2022-09-15T01:59:03.274Z,17.20
2022-09-15T02:01:52.255Z,17.20
2022-09-15T02:04:39.403Z,17.20
2022-09-15T02:07:16.301Z,17.20
2022-09-15T02:10:11.538Z,17.20
2022-09-15T02:12:58.444Z,17.20
2022-09-15T02:15:33.333Z,17.20
2022-09-15T02:18:02.398Z,17.20
2022-09-15T02:20:33.259Z,17.30
2022-09-15T02:23:08.462Z,17.30
2022-09-15T02:25:41.758Z,17.30
2022-09-15T02:28:11.252Z,17.40
2022-09-15T02:30:41.935Z,17.50
2022-09-15T02:33:19.897Z,17.50
2022-09-15T02:35:47.435Z,17.60
2022-09-15T02:38:15.099Z,17.60
2022-09-15T02:40:43.996Z,17.60
2022-09-15T02:43:16.210Z,17.60
2022-09-15T02:45:43.766Z,17.60
2022-09-15T02:48:10.539Z,17.60
2022-09-15T02:50:38.041Z,17.50
2022-09-15T02:53:05.254Z,17.50
2022-09-15T02:55:31.918Z,17.50
2022-09-15T02:57:58.968Z,17.50
2022-09-15T03:00:26.895Z,17.40
2022-09-15T03:02:54.758Z,17.40
2022-09-15T03:05:24.538Z,17.40
2022-09-15T03:07:51.938Z,17.40
2022-09-15T03:10:19.171Z,17.40
2022-09-15T03:12:49.498Z,17.40
2022-09-15T03:15:18.297Z,17.40
2022-09-15T03:17:46.911Z,17.30
2022-09-15T03:20:17.063Z,17.30
2022-09-15T03:22:44.077Z,17.30
2022-09-15T03:25:11.272Z,17.30
2022-09-15T03:27:38.452Z,17.30
2022-09-15T03:30:06.926Z,17.30
2022-09-15T03:32:33.600Z,17.30
2022-09-15T03:35:00.312Z,17.30
2022-09-15T03:37:27.305Z,17.30
2022-09-15T03:39:53.985Z,17.20
2022-09-15T03:42:21.429Z,17.20
2022-09-15T03:44:48.154Z,17.20
2022-09-15T03:47:14.842Z,17.20
2022-09-15T03:49:41.498Z,17.20
2022-09-15T03:52:08.269Z,17.30
2022-09-15T03:54:35.705Z,17.30
2022-09-15T03:57:03.291Z,17.30
2022-09-15T03:59:29.971Z,17.40
2022-09-15T04:01:56.717Z,17.40
2022-09-15T04:04:23.480Z,17.40
2022-09-15T04:06:50.120Z,17.40
2022-09-15T04:09:16.883Z,17.40
2022-09-15T04:11:43.531Z,17.40
2022-09-15T04:14:10.268Z,17.40
2022-09-15T04:16:36.986Z,17.50
2022-09-15T04:19:03.798Z,17.50
2022-09-15T04:21:31.988Z,17.50
2022-09-15T04:23:58.802Z,17.50
2022-09-15T04:26:32.938Z,17.50
2022-09-15T04:29:04.317Z,17.50
2022-09-15T04:31:33.142Z,17.50
2022-09-15T04:33:59.960Z,17.60
2022-09-15T04:36:28.366Z,17.50
2022-09-15T04:38:56.291Z,17.50
2022-09-15T04:41:23.671Z,17.50
2022-09-15T04:43:50.371Z,17.50
2022-09-15T04:46:18.544Z,17.50
2022-09-15T04:48:46.229Z,17.50
2022-09-15T04:51:16.422Z,17.60
2022-09-15T04:53:43.469Z,17.60
2022-09-15T04:56:29.704Z,17.60
2022-09-15T04:59:03.441Z,17.60
2022-09-15T05:01:33.714Z,17.60
2022-09-15T05:04:03.853Z,17.60
2022-09-15T05:06:30.621Z,17.60
2022-09-15T05:08:58.714Z,17.70
2022-09-15T05:11:26.158Z,17.70
2022-09-15T05:13:53.384Z,17.70
2022-09-15T05:16:23.045Z,17.70
2022-09-15T05:18:51.053Z,17.70
2022-09-15T05:21:20.104Z,17.60
2022-09-15T05:23:47.094Z,17.50
2022-09-15T05:26:17.248Z,17.50
2022-09-15T05:28:44.219Z,17.50
2022-09-15T05:31:19.676Z,17.60
2022-09-15T05:33:48.325Z,17.60
2022-09-15T05:36:17.219Z,17.60
2022-09-15T05:38:47.084Z,17.60
2022-09-15T05:41:16.925Z,17.60
2022-09-15T05:43:45.443Z,17.60
2022-09-15T05:46:12.959Z,17.60
2022-09-15T05:48:40.236Z,17.70
2022-09-15T05:51:07.841Z,17.70
2022-09-15T05:53:35.728Z,17.70
2022-09-15T05:56:05.366Z,17.70
2022-09-15T05:58:32.904Z,17.70
2022-09-15T06:01:08.565Z,17.70
2022-09-15T06:03:36.174Z,17.80
2022-09-15T06:06:04.630Z,17.80
2022-09-15T06:08:36.640Z,17.80
2022-09-15T06:11:12.558Z,17.80
2022-09-15T06:13:40.168Z,17.80
2022-09-15T06:16:15.858Z,17.70
2022-09-15T06:18:42.728Z,17.70
2022-09-15T06:21:15.319Z,17.70
2022-09-15T06:23:44.139Z,17.70
2022-09-15T06:26:17.898Z,17.80
2022-09-15T06:28:56.322Z,17.70
2022-09-15T06:31:28.091Z,17.80
2022-09-15T06:33:56.981Z,17.80
2022-09-15T06:36:26.461Z,17.80
2022-09-15T06:38:53.993Z,17.90
2022-09-15T06:41:21.071Z,17.80
2022-09-15T06:43:49.469Z,17.80
2022-09-15T06:46:18.902Z,17.80
2022-09-15T06:48:48.346Z,17.90
2022-09-15T06:51:17.163Z,17.80
2022-09-15T06:53:44.260Z,17.80
2022-09-15T06:56:14.476Z,17.80
2022-09-15T06:58:42.553Z,17.80
2022-09-15T07:01:12.739Z,17.80
2022-09-15T07:03:42.470Z,17.90
2022-09-15T07:06:12.162Z,18.00
2022-09-15T07:08:39.844Z,18.00
2022-09-15T07:11:07.515Z,18.00
2022-09-15T07:13:34.329Z,18.00
2022-09-15T07:16:03.587Z,18.00
2022-09-15T07:18:31.921Z,17.80
2022-09-15T07:21:01.135Z,17.70
2022-09-15T07:23:27.924Z,17.60
2022-09-15T07:26:31.235Z,17.40
2022-09-15T07:29:01.755Z,17.40
2022-09-15T07:31:31.661Z,17.30
2022-09-15T07:34:03.009Z,17.30
2022-09-15T07:36:30.682Z,17.20
2022-09-15T07:38:57.970Z,17.20
2022-09-15T07:41:27.314Z,17.30
2022-09-15T07:43:56.392Z,17.30
2022-09-15T07:46:24.817Z,17.40
2022-09-15T07:48:53.512Z,17.40
2022-09-15T07:51:20.756Z,17.50
2022-09-15T07:53:48.972Z,17.60
2022-09-15T07:56:20.460Z,17.70
2022-09-15T07:58:48.948Z,17.70
2022-09-15T08:01:17.268Z,17.80
2022-09-15T08:03:46.588Z,17.90
2022-09-15T08:06:13.727Z,18.10
2022-09-15T08:08:41.704Z,18.20
2022-09-15T08:11:12.239Z,18.30
2022-09-15T08:13:41.953Z,18.50
2022-09-15T08:16:13.941Z,18.50
2022-09-15T08:18:43.124Z,18.60
2022-09-15T08:21:12.352Z,18.80
2022-09-15T08:23:39.638Z,18.80
2022-09-15T08:26:14.081Z,18.90
2022-09-15T08:28:41.763Z,19.00
2022-09-15T08:31:11.487Z,19.10
2022-09-15T08:33:44.617Z,19.20
2022-09-15T08:36:12.544Z,19.20
2022-09-15T08:38:46.836Z,19.20
2022-09-15T08:41:30.785Z,19.30
2022-09-15T08:44:08.286Z,19.40
2022-09-15T08:46:40.884Z,19.50
2022-09-15T08:49:35.784Z,19.60
2022-09-15T08:52:40.222Z,19.70
2022-09-15T08:55:19.376Z,19.80
2022-09-15T08:57:46.159Z,19.90
2022-09-15T09:00:16.871Z,20.00
2022-09-15T09:03:15.698Z,20.30
2022-09-15T09:05:49.736Z,20.30
2022-09-15T09:08:37.949Z,20.30
2022-09-15T09:11:04.660Z,20.30
2022-09-15T09:13:45.340Z,20.60
2022-09-15T09:16:36.236Z,20.90
2022-09-15T09:19:44.493Z,21.40
2022-09-15T09:22:17.761Z,21.70
2022-09-15T09:24:51.462Z,21.70
2022-09-15T09:27:23.382Z,21.60
2022-09-15T09:29:56.096Z,21.40
2022-09-15T09:32:32.322Z,21.60
2022-09-15T09:35:17.608Z,21.80
2022-09-15T09:37:44.895Z,22.00
2022-09-15T09:40:16.103Z,22.10
2022-09-15T09:42:43.910Z,22.30
2022-09-15T09:45:15.865Z,22.00
2022-09-15T09:47:43.323Z,21.80
2022-09-15T09:50:39.583Z,22.10
2022-09-15T09:53:33.468Z,22.40
2022-09-15T09:56:12.993Z,22.70
2022-09-15T09:58:39.601Z,22.70
2022-09-15T10:01:15.208Z,22.70
2022-09-15T10:03:43.353Z,22.60
2022-09-15T10:06:27.200Z,22.60
2022-09-15T10:08:59.380Z,22.30
2022-09-15T10:11:47.840Z,22.10
2022-09-15T10:14:21.903Z,22.10
2022-09-15T10:17:21.366Z,22.30
2022-09-15T10:19:55.362Z,22.20
2022-09-15T10:22:28.395Z,22.00
2022-09-15T10:24:55.392Z,22.10
2022-09-15T10:27:32.711Z,22.30
2022-09-15T10:30:16.229Z,22.70
2022-09-15T10:32:43.250Z,22.80
2022-09-15T10:35:13.280Z,22.90
2022-09-15T10:37:49.079Z,22.90
2022-09-15T10:40:40.618Z,22.80
2022-09-15T10:43:37.497Z,22.60
2022-09-15T10:46:13.485Z,22.10
2022-09-15T10:48:46.180Z,22.00
2022-09-15T10:51:18.980Z,22.20
2022-09-15T10:54:10.881Z,22.60
2022-09-15T10:56:46.190Z,22.60
2022-09-15T10:59:33.833Z,22.50
2022-09-15T11:02:03.693Z,22.20
2022-09-15T11:04:55.943Z,21.90
2022-09-15T11:07:46.129Z,21.70
2022-09-15T11:10:39.356Z,21.70
2022-09-15T11:13:27.405Z,21.70
2022-09-15T11:16:16.955Z,21.70
2022-09-15T11:19:21.498Z,21.80
2022-09-15T11:21:59.953Z,21.90
2022-09-15T11:24:33.583Z,22.00
2022-09-15T11:27:07.470Z,22.20
2022-09-15T11:30:00.040Z,22.40
2022-09-15T11:32:40.865Z,22.50
2022-09-15T11:35:26.344Z,22.40
2022-09-15T11:37:58.925Z,22.10
2022-09-15T11:40:30.197Z,21.80
2022-09-15T11:43:21.392Z,21.70
2022-09-15T11:45:53.369Z,21.80
2022-09-15T11:48:33.665Z,21.90
2022-09-15T11:51:03.175Z,22.00
2022-09-15T11:53:35.818Z,21.90
2022-09-15T11:56:08.449Z,22.00
2022-09-15T11:58:40.854Z,22.20
2022-09-15T12:01:15.700Z,22.20
2022-09-15T12:03:50.636Z,22.30
2022-09-15T12:06:24.709Z,22.40
2022-09-15T12:09:00.878Z,22.30
2022-09-15T12:11:31.168Z,22.10
2022-09-15T12:13:59.871Z,22.10
2022-09-15T12:16:28.049Z,22.10
2022-09-15T12:18:57.953Z,22.00
2022-09-15T12:22:14.541Z,21.90
2022-09-15T12:24:53.324Z,21.80
2022-09-15T12:27:21.847Z,21.60
2022-09-15T12:29:49.924Z,21.40
2022-09-15T12:32:27.585Z,21.30
2022-09-15T12:34:57.260Z,21.40
2022-09-15T12:37:25.596Z,21.40
2022-09-15T12:39:53.951Z,21.40
2022-09-15T12:42:29.437Z,21.30
2022-09-15T12:45:07.998Z,21.10
2022-09-15T12:47:47.890Z,21.00
2022-09-15T12:50:14.541Z,21.00
2022-09-15T12:52:50.488Z,20.90
2022-09-15T12:55:31.413Z,20.70
2022-09-15T12:58:00.870Z,20.60
2022-09-15T13:00:34.092Z,20.50
2022-09-15T13:03:02.587Z,20.50
2022-09-15T13:05:41.223Z,20.60
2022-09-15T13:08:15.268Z,21.00
2022-09-15T13:10:59.407Z,21.10
2022-09-15T13:13:43.743Z,21.00
2022-09-15T13:16:25.218Z,21.00
2022-09-15T13:19:05.334Z,21.20
2022-09-15T13:21:35.956Z,21.90
2022-09-15T13:24:07.204Z,22.30
2022-09-15T13:26:35.811Z,22.30
2022-09-15T13:29:03.937Z,22.00
2022-09-15T13:32:13.580Z,21.70
2022-09-15T13:35:09.612Z,21.90
2022-09-15T13:38:08.146Z,22.10
2022-09-15T13:41:11.653Z,22.20
2022-09-15T13:44:05.432Z,21.90
2022-09-15T13:46:50.396Z,21.80
2022-09-15T13:49:35.710Z,21.60
2022-09-15T13:52:23.568Z,21.50
2022-09-15T13:55:15.605Z,21.70
2022-09-15T14:00:45.054Z,21.60
2022-09-15T14:03:17.392Z,21.70
2022-09-15T14:05:45.437Z,21.90
2022-09-15T14:08:30.349Z,22.00
2022-09-15T14:11:01.125Z,22.10
2022-09-15T14:13:29.968Z,21.90
2022-09-15T14:16:01.023Z,21.70
2022-09-15T14:18:29.134Z,21.50
2022-09-15T14:21:04.241Z,21.40
2022-09-15T14:23:32.552Z,21.30
2022-09-15T14:26:01.607Z,21.10
2022-09-15T14:28:32.293Z,21.00
2022-09-15T14:31:02.847Z,21.00
2022-09-15T14:33:38.236Z,21.00
2022-09-15T14:36:37.699Z,21.10
2022-09-15T14:39:21.998Z,21.00
2022-09-15T14:41:50.227Z,20.80
2022-09-15T14:47:20.076Z,19.20
2022-09-15T14:49:47.774Z,18.70
2022-09-15T14:52:29.476Z,18.50
2022-09-15T14:55:00.584Z,18.40
2022-09-15T14:57:31.357Z,18.30
2022-09-15T15:00:04.304Z,18.30
2022-09-15T15:02:31.096Z,18.30
2022-09-15T15:05:10.082Z,18.30
2022-09-15T15:07:38.694Z,18.30
2022-09-15T15:10:13.570Z,18.30
2022-09-15T15:12:43.320Z,18.20
2022-09-15T15:15:14.625Z,17.80
2022-09-15T15:17:44.405Z,17.40
2022-09-15T15:20:11.115Z,17.10
2022-09-15T15:22:40.043Z,17.00
2022-09-15T15:25:27.541Z,17.00
2022-09-15T15:28:01.706Z,17.00
2022-09-15T15:30:43.759Z,17.10
2022-09-15T15:33:19.856Z,17.00
2022-09-15T15:35:48.537Z,17.00
2022-09-15T15:38:17.074Z,17.00
2022-09-15T15:40:44.853Z,17.00
2022-09-15T15:43:26.263Z,17.00
2022-09-15T15:46:00.916Z,17.00
2022-09-15T15:48:34.053Z,17.00
2022-09-15T15:51:05.491Z,16.90
2022-09-15T15:53:35.632Z,16.90
2022-09-15T15:56:02.655Z,16.80
2022-09-15T15:58:29.432Z,16.80
2022-09-15T16:01:01.089Z,16.90
2022-09-15T16:03:27.857Z,16.90
2022-09-15T16:05:58.314Z,17.00
2022-09-15T16:08:31.789Z,16.90
2022-09-15T16:11:00.588Z,17.00
2022-09-15T16:13:28.481Z,17.10
2022-09-15T16:16:00.299Z,17.10
2022-09-15T16:18:28.483Z,17.10
2022-09-15T16:20:55.138Z,17.10
2022-09-15T16:23:23.006Z,17.20
2022-09-15T16:26:03.470Z,17.20
2022-09-15T16:28:30.348Z,17.20
2022-09-15T16:30:57.620Z,17.10
2022-09-15T16:33:25.084Z,17.00
2022-09-15T16:35:56.127Z,17.00
2022-09-15T16:38:25.752Z,16.90
2022-09-15T16:40:53.199Z,16.80
2022-09-15T16:43:22.094Z,16.70
2022-09-15T16:45:49.798Z,16.60
2022-09-15T16:48:16.645Z,16.50
2022-09-15T16:51:16.850Z,16.50
2022-09-15T16:53:31.154Z,16.50
2022-09-15T16:55:58.639Z,16.40
2022-09-15T16:58:25.310Z,16.40
2022-09-15T17:00:52.907Z,16.40
2022-09-15T17:03:22.841Z,16.20
2022-09-15T17:05:55.151Z,16.10
2022-09-15T17:08:27.046Z,16.10
2022-09-15T17:10:59.688Z,15.90
2022-09-15T17:13:30.467Z,15.80
2022-09-15T17:15:58.731Z,15.80
2022-09-15T17:18:25.962Z,15.60
2022-09-15T17:20:53.606Z,15.50
2022-09-15T17:23:20.403Z,15.50
2022-09-15T17:25:53.678Z,15.50
2022-09-15T17:28:22.704Z,15.40
2022-09-15T17:30:51.436Z,15.40
2022-09-15T17:33:20.463Z,15.40
2022-09-15T17:35:48.460Z,15.40
2022-09-15T17:38:15.980Z,15.40
2022-09-15T17:40:43.042Z,15.30
2022-09-15T17:43:15.630Z,15.30
2022-09-15T17:45:43.186Z,15.30
2022-09-15T17:48:10.182Z,15.30
2022-09-15T17:50:38.159Z,15.20
2022-09-15T17:53:22.910Z,15.20
2022-09-15T17:55:54.735Z,15.10
2022-09-15T17:58:23.053Z,15.10
2022-09-15T18:00:50.798Z,15.10
2022-09-15T18:03:24.724Z,15.10
2022-09-15T18:05:52.176Z,15.10
2022-09-15T18:08:19.012Z,15.00
2022-09-15T18:10:46.365Z,15.00
2022-09-15T18:13:19.027Z,15.00
2022-09-15T18:15:46.567Z,15.00
2022-09-15T18:18:16.804Z,15.00
2022-09-15T18:20:43.946Z,15.00
2022-09-15T18:23:17.001Z,15.00
2022-09-15T18:25:44.485Z,15.00
2022-09-15T18:28:11.500Z,15.10
2022-09-15T18:30:40.951Z,15.00
2022-09-15T18:33:13.616Z,15.00
2022-09-15T18:35:41.390Z,14.90
2022-09-15T18:38:08.939Z,14.90
2022-09-15T18:40:36.097Z,14.90
2022-09-15T18:43:03.169Z,14.90
2022-09-15T18:45:29.850Z,14.80
2022-09-15T18:47:57.003Z,14.80
2022-09-15T18:50:25.204Z,14.80
2022-09-15T18:52:53.018Z,14.80
2022-09-15T18:55:21.913Z,14.80
2022-09-15T18:57:51.106Z,14.80
2022-09-15T19:00:20.918Z,14.90
2022-09-15T19:02:47.733Z,14.90
2022-09-15T19:05:16.301Z,14.90
2022-09-15T19:07:45.909Z,14.90
2022-09-15T19:10:14.435Z,14.90
2022-09-15T19:12:41.669Z,14.90
2022-09-15T19:15:11.462Z,14.90
2022-09-15T19:17:39.597Z,14.90
2022-09-15T19:20:08.496Z,14.90
2022-09-15T19:22:36.613Z,14.90
2022-09-15T19:25:05.408Z,14.90
2022-09-15T19:27:32.893Z,15.00
2022-09-15T19:30:00.491Z,14.90
2022-09-15T19:32:27.477Z,14.80
2022-09-15T19:34:54.347Z,14.80
2022-09-15T19:37:22.207Z,14.80
2022-09-15T19:39:49.936Z,14.80
2022-09-15T19:42:17.296Z,14.80
2022-09-15T19:44:44.160Z,14.80
2022-09-15T19:47:11.069Z,14.80
2022-09-15T19:49:37.864Z,14.80
2022-09-15T19:52:06.349Z,14.70
2022-09-15T19:54:34.623Z,14.70
2022-09-15T19:57:02.002Z,14.80
2022-09-15T19:59:31.642Z,14.80
2022-09-15T20:01:59.614Z,14.80
2022-09-15T20:04:26.930Z,14.80
2022-09-15T20:06:53.833Z,14.80
2022-09-15T20:09:20.714Z,14.80
2022-09-15T20:11:47.585Z,14.70
2022-09-15T20:14:14.543Z,14.70
2022-09-15T20:16:41.665Z,14.70
2022-09-15T20:19:08.429Z,14.70
2022-09-15T20:21:53.241Z,14.60
2022-09-15T20:24:21.599Z,14.60
2022-09-15T20:26:48.632Z,14.60
2022-09-15T20:29:15.513Z,14.60
2022-09-15T20:31:42.575Z,14.70
2022-09-15T20:34:09.473Z,14.70
2022-09-15T20:36:39.062Z,14.70
2022-09-15T20:39:11.420Z,14.80
2022-09-15T20:41:39.224Z,14.80
2022-09-15T20:44:09.332Z,14.80
2022-09-15T20:46:36.158Z,14.80
2022-09-15T20:49:03.297Z,14.80
2022-09-15T20:51:31.711Z,14.80
2022-09-15T20:54:00.452Z,14.80
2022-09-15T20:56:28.933Z,14.90
2022-09-15T20:58:58.568Z,14.90
2022-09-15T21:01:36.703Z,14.90
2022-09-15T21:04:05.568Z,14.90
2022-09-15T21:06:33.338Z,14.80
2022-09-15T21:09:00.485Z,14.70
2022-09-15T21:11:28.331Z,14.60
2022-09-15T21:13:56.286Z,14.60
2022-09-15T21:16:28.145Z,14.60
2022-09-15T21:18:56.899Z,14.70
2022-09-15T21:21:25.845Z,14.70
2022-09-15T21:24:03.489Z,14.70
2022-09-15T21:26:33.236Z,14.70
2022-09-15T21:29:00.809Z,14.60
2022-09-15T21:31:32.974Z,14.50
2022-09-15T21:33:59.936Z,14.50
2022-09-15T21:36:29.567Z,14.50
2022-09-15T21:38:58.214Z,14.50
2022-09-15T21:41:27.368Z,14.50
2022-09-15T21:43:55.052Z,14.60
2022-09-15T21:46:24.731Z,14.60
2022-09-15T21:48:51.760Z,14.60
2022-09-15T21:51:24.303Z,14.60
2022-09-15T21:53:56.238Z,14.50
2022-09-15T21:56:23.770Z,14.40
2022-09-15T21:58:50.971Z,14.50
2022-09-15T22:01:23.593Z,14.40
2022-09-15T22:03:52.922Z,14.30
2022-09-15T22:06:22.301Z,14.30
2022-09-15T22:08:49.323Z,14.40
2022-09-15T22:11:16.095Z,14.40
2022-09-15T22:13:44.626Z,14.40
2022-09-15T22:16:15.677Z,14.40
2022-09-15T22:18:43.352Z,14.40
2022-09-15T22:21:11.938Z,14.40
2022-09-15T22:23:40.000Z,14.30
2022-09-15T22:26:13.077Z,14.30
2022-09-15T22:28:40.422Z,14.20
2022-09-15T22:31:10.197Z,14.20
2022-09-15T22:33:37.714Z,14.20
2022-09-15T22:36:05.969Z,14.20
2022-09-15T22:38:32.733Z,14.20
2022-09-15T22:41:07.573Z,14.20
2022-09-15T22:43:34.642Z,14.20
2022-09-15T22:46:01.816Z,14.20
2022-09-15T22:48:28.744Z,14.10
2022-09-15T22:50:55.652Z,14.10
2022-09-15T22:53:23.433Z,14.20
2022-09-15T22:55:51.305Z,14.20
2022-09-15T22:58:18.002Z,14.20
2022-09-15T23:00:44.740Z,14.20
2022-09-15T23:03:11.849Z,14.30
2022-09-15T23:05:38.652Z,14.30
2022-09-15T23:08:07.716Z,14.30
2022-09-15T23:10:34.418Z,14.40
2022-09-15T23:13:01.120Z,14.30
2022-09-15T23:15:28.752Z,14.30
2022-09-15T23:17:55.616Z,14.30
2022-09-15T23:20:22.309Z,14.30
2022-09-15T23:22:48.966Z,14.30
2022-09-15T23:25:15.861Z,14.30
2022-09-15T23:27:46.474Z,14.30
2022-09-15T23:30:13.553Z,14.40
2022-09-15T23:32:40.212Z,14.40
2022-09-15T23:35:07.423Z,14.40
2022-09-15T23:37:34.138Z,14.40
2022-09-15T23:40:00.996Z,14.40
2022-09-15T23:42:27.692Z,14.40
2022-09-15T23:44:54.346Z,14.40
2022-09-15T23:47:21.115Z,14.40
2022-09-15T23:49:47.785Z,14.40
2022-09-15T23:52:14.515Z,14.30
2022-09-15T23:54:41.215Z,14.30
2022-09-15T23:57:08.837Z,14.30
2022-09-15T23:59:35.602Z,14.30
